SVA1123 OEDF-EDDF
Flight info
| Callsign | SVA1123 |
|---|---|
| Flight time | N/A |
| Altitude | 38000 |
| Route | TAYMA2E TAYMA N697 HIL T540 ENABI L550 NOVPA N697 SISIK/N0472F400 N697 MENLI L677 CVO L617 NOZ L551 ANTAR DCT GUDIS DCT RIPLI UN137 SKP DCT KOGIS DCT BITLA DCT MAVAR DCT SIMBA DCT AKINI T161 DEBHI DEBHI1B |
| Aircraft | A333/H-SDE3GHIJ2J3J5M1RVWXY/LB2D1 |
Departure
| Time | 2026-04-23 18:12 |
|---|---|
| Airport | King Fahd International Airport (OEDF) |
Arrival
| Time | N/A |
|---|---|
| Airport | Frankfurt Main Airport (EDDF) |
| Time | Latitude | Longitude | Altitude | Speed | Heading |
|---|---|---|---|---|---|
| 2026-04-23 17:04 | 26.46686 | 49.79541 | 89 ft | 0 kts | 75° |
| 2026-04-23 17:54 | 26.46684 | 49.79530 | 89 ft | 4 kts | 78° |
| 2026-04-23 17:54 | 26.46690 | 49.79474 | 94 ft | 4 kts | 139° |
| 2026-04-23 17:55 | 26.46700 | 49.79466 | 92 ft | 4 kts | 162° |
| 2026-04-23 18:03 | 26.46699 | 49.79467 | 89 ft | 2 kts | 162° |
| 2026-04-23 18:03 | 26.46672 | 49.79475 | 93 ft | 6 kts | 167° |
| 2026-04-23 18:04 | 26.46616 | 49.79486 | 93 ft | 10 kts | 172° |
| 2026-04-23 18:04 | 26.46532 | 49.79492 | 91 ft | 13 kts | 180° |
| 2026-04-23 18:04 | 26.46467 | 49.79439 | 93 ft | 14 kts | 242° |
| 2026-04-23 18:04 | 26.46432 | 49.79325 | 92 ft | 17 kts | 254° |
| 2026-04-23 18:05 | 26.46362 | 49.79244 | 92 ft | 15 kts | 174° |
| 2026-04-23 18:05 | 26.46262 | 49.79270 | 92 ft | 16 kts | 168° |
| 2026-04-23 18:05 | 26.46139 | 49.79304 | 94 ft | 20 kts | 165° |
| 2026-04-23 18:05 | 26.45993 | 49.79350 | 92 ft | 24 kts | 165° |
| 2026-04-23 18:06 | 26.45822 | 49.79401 | 92 ft | 27 kts | 165° |
| 2026-04-23 18:06 | 26.45634 | 49.79460 | 93 ft | 26 kts | 165° |
| 2026-04-23 18:06 | 26.45473 | 49.79471 | 93 ft | 16 kts | 219° |
| 2026-04-23 18:06 | 26.45440 | 49.79384 | 92 ft | 6 kts | 253° |
| 2026-04-23 18:07 | 26.45440 | 49.79382 | 92 ft | 0 kts | 253° |
| 2026-04-23 18:09 | 26.45439 | 49.79379 | 89 ft | 2 kts | 253° |
| 2026-04-23 18:10 | 26.45431 | 49.79347 | 91 ft | 6 kts | 256° |
| 2026-04-23 18:10 | 26.45427 | 49.79284 | 93 ft | 10 kts | 276° |
| 2026-04-23 18:10 | 26.45462 | 49.79199 | 90 ft | 14 kts | 315° |
| 2026-04-23 18:10 | 26.45513 | 49.79171 | 91 ft | 0 kts | 340° |
| 2026-04-23 18:11 | 26.45521 | 49.79168 | 93 ft | 3 kts | 341° |
| 2026-04-23 18:11 | 26.45658 | 49.79125 | 92 ft | 55 kts | 343° |
| 2026-04-23 18:11 | 26.46316 | 49.78920 | 96 ft | 140 kts | 344° |
| 2026-04-23 18:11 | 26.47504 | 49.78581 | 326 ft | 203 kts | 339° |
| 2026-04-23 18:12 | 26.48953 | 49.78090 | 1166 ft | 228 kts | 347° |
| 2026-04-23 18:12 | 26.50521 | 49.77593 | 2131 ft | 245 kts | 345° |
| 2026-04-23 18:12 | 26.52215 | 49.77039 | 3117 ft | 261 kts | 341° |
| 2026-04-23 18:12 | 26.54028 | 49.76393 | 4037 ft | 284 kts | 340° |
| 2026-04-23 18:13 | 26.55944 | 49.75695 | 5123 ft | 290 kts | 342° |
| 2026-04-23 18:13 | 26.57815 | 49.74942 | 6490 ft | 282 kts | 327° |
| 2026-04-23 18:13 | 26.59209 | 49.73523 | 7772 ft | 272 kts | 299° |
| 2026-04-23 18:13 | 26.59811 | 49.71573 | 8907 ft | 265 kts | 273° |
| 2026-04-23 18:14 | 26.59598 | 49.69542 | 9599 ft | 264 kts | 255° |
| 2026-04-23 18:14 | 26.59084 | 49.67564 | 9853 ft | 266 kts | 256° |
| 2026-04-23 18:14 | 26.58931 | 49.65508 | 9908 ft | 268 kts | 273° |
| 2026-04-23 18:14 | 26.59221 | 49.63369 | 9919 ft | 297 kts | 278° |
| 2026-04-23 18:15 | 26.59657 | 49.60993 | 9919 ft | 323 kts | 280° |
| 2026-04-23 18:15 | 26.60133 | 49.58528 | 9913 ft | 318 kts | 280° |
| 2026-04-23 18:15 | 26.60584 | 49.56210 | 9912 ft | 292 kts | 280° |
| 2026-04-23 18:15 | 26.60999 | 49.54060 | 9839 ft | 278 kts | 279° |
| 2026-04-23 18:16 | 26.61395 | 49.51982 | 9819 ft | 271 kts | 279° |
| 2026-04-23 18:16 | 26.61781 | 49.49937 | 9911 ft | 273 kts | 279° |
| 2026-04-23 18:16 | 26.62177 | 49.47831 | 9922 ft | 274 kts | 279° |
| 2026-04-23 18:17 | 26.63024 | 49.43289 | 9980 ft | 326 kts | 279° |
| 2026-04-23 18:17 | 26.63501 | 49.40748 | 10302 ft | 339 kts | 280° |
| 2026-04-23 18:17 | 26.63991 | 49.38141 | 10847 ft | 345 kts | 280° |
| 2026-04-23 18:17 | 26.64489 | 49.35495 | 11394 ft | 350 kts | 280° |
| 2026-04-23 18:18 | 26.64993 | 49.32806 | 11956 ft | 355 kts | 280° |
| 2026-04-23 18:18 | 26.65503 | 49.30084 | 12537 ft | 359 kts | 280° |
| 2026-04-23 18:18 | 26.66015 | 49.27347 | 13113 ft | 362 kts | 280° |
| 2026-04-23 18:18 | 26.66531 | 49.24580 | 13705 ft | 364 kts | 280° |
| 2026-04-23 18:19 | 26.67050 | 49.21796 | 14241 ft | 366 kts | 280° |
| 2026-04-23 18:19 | 26.67572 | 49.18997 | 14777 ft | 368 kts | 280° |
| 2026-04-23 18:19 | 26.68088 | 49.16223 | 15326 ft | 371 kts | 280° |
| 2026-04-23 18:19 | 26.68615 | 49.13382 | 15878 ft | 373 kts | 279° |
| 2026-04-23 18:20 | 26.69143 | 49.10540 | 16439 ft | 374 kts | 279° |
| 2026-04-23 18:20 | 26.69673 | 49.07685 | 17020 ft | 376 kts | 279° |
| 2026-04-23 18:20 | 26.70206 | 49.04817 | 17613 ft | 377 kts | 279° |
| 2026-04-23 18:20 | 26.70739 | 49.01941 | 18205 ft | 377 kts | 279° |
| 2026-04-23 18:21 | 26.71273 | 48.99057 | 18739 ft | 378 kts | 279° |
| 2026-04-23 18:21 | 26.71805 | 48.96184 | 19268 ft | 377 kts | 279° |
| 2026-04-23 18:21 | 26.72337 | 48.93307 | 19803 ft | 377 kts | 279° |
| 2026-04-23 18:21 | 26.72868 | 48.90431 | 20360 ft | 377 kts | 279° |
| 2026-04-23 18:22 | 26.73390 | 48.87596 | 20923 ft | 376 kts | 279° |
| 2026-04-23 18:22 | 26.73919 | 48.84726 | 21478 ft | 376 kts | 279° |
| 2026-04-23 18:22 | 26.74445 | 48.81866 | 22052 ft | 375 kts | 279° |
| 2026-04-23 18:22 | 26.74969 | 48.79013 | 22652 ft | 373 kts | 280° |
| 2026-04-23 18:23 | 26.75314 | 48.77132 | 23062 ft | 372 kts | 280° |
| 2026-04-23 18:23 | 26.76432 | 48.70519 | 24322 ft | 367 kts | 274° |
| 2026-04-23 18:24 | 26.76560 | 48.64863 | 25377 ft | 361 kts | 268° |
| 2026-04-23 18:24 | 26.76475 | 48.62067 | 25911 ft | 357 kts | 267° |
| 2026-04-23 18:24 | 26.76365 | 48.59335 | 26453 ft | 354 kts | 266° |
| 2026-04-23 18:25 | 26.76152 | 48.53895 | 27575 ft | 346 kts | 267° |
| 2026-04-23 18:25 | 26.76063 | 48.51225 | 28159 ft | 341 kts | 267° |
| 2026-04-23 18:25 | 26.75984 | 48.48598 | 28754 ft | 336 kts | 267° |
| 2026-04-23 18:25 | 26.75912 | 48.46002 | 29265 ft | 333 kts | 267° |
| 2026-04-23 18:26 | 26.75841 | 48.43412 | 29668 ft | 333 kts | 266° |
| 2026-04-23 18:26 | 26.75772 | 48.40830 | 30069 ft | 332 kts | 266° |
| 2026-04-23 18:26 | 26.75702 | 48.38247 | 30421 ft | 331 kts | 266° |
| 2026-04-23 18:26 | 26.75631 | 48.35678 | 30774 ft | 330 kts | 266° |
| 2026-04-23 18:27 | 26.75560 | 48.33114 | 31128 ft | 328 kts | 266° |
| 2026-04-23 18:27 | 26.75514 | 48.31431 | 31369 ft | 327 kts | 266° |
| 2026-04-23 18:27 | 26.75420 | 48.28043 | 31843 ft | 324 kts | 266° |
| 2026-04-23 18:27 | 26.75373 | 48.26377 | 32094 ft | 322 kts | 266° |
| 2026-04-23 18:28 | 26.75304 | 48.23882 | 32463 ft | 319 kts | 266° |
| 2026-04-23 18:28 | 26.75234 | 48.21411 | 32836 ft | 316 kts | 266° |
| 2026-04-23 18:28 | 26.75164 | 48.18957 | 33208 ft | 312 kts | 266° |
| 2026-04-23 18:28 | 26.75095 | 48.16545 | 33588 ft | 308 kts | 265° |
| 2026-04-23 18:29 | 26.75028 | 48.14171 | 33966 ft | 303 kts | 265° |
| 2026-04-23 18:29 | 26.74960 | 48.11832 | 34313 ft | 298 kts | 265° |
| 2026-04-23 18:29 | 26.74894 | 48.09539 | 34655 ft | 292 kts | 265° |
| 2026-04-23 18:29 | 26.74829 | 48.07292 | 34995 ft | 286 kts | 265° |
| 2026-04-23 18:30 | 26.74765 | 48.05102 | 35348 ft | 278 kts | 265° |
| 2026-04-23 18:30 | 26.74702 | 48.02962 | 35696 ft | 270 kts | 265° |
| 2026-04-23 18:30 | 26.74638 | 48.00883 | 35881 ft | 268 kts | 264° |
| 2026-04-23 18:30 | 26.74557 | 47.98761 | 35685 ft | 278 kts | 264° |
| 2026-04-23 18:31 | 26.74434 | 47.96569 | 35549 ft | 286 kts | 263° |
| 2026-04-23 18:31 | 26.74266 | 47.94380 | 35829 ft | 279 kts | 262° |
| 2026-04-23 18:31 | 26.74055 | 47.92230 | 35815 ft | 285 kts | 261° |
| 2026-04-23 18:31 | 26.73835 | 47.89973 | 35530 ft | 299 kts | 267° |
| 2026-04-23 18:32 | 26.74072 | 47.87621 | 35426 ft | 311 kts | 278° |
| 2026-04-23 18:32 | 26.74661 | 47.85237 | 35192 ft | 326 kts | 281° |
| 2026-04-23 18:32 | 26.75177 | 47.82740 | 34960 ft | 333 kts | 271° |
| 2026-04-23 18:32 | 26.75255 | 47.80119 | 34780 ft | 341 kts | 266° |
| 2026-04-23 18:33 | 26.75212 | 47.77423 | 34624 ft | 351 kts | 266° |
| 2026-04-23 18:33 | 26.75164 | 47.74654 | 34514 ft | 360 kts | 266° |
| 2026-04-23 18:33 | 26.75112 | 47.71813 | 34461 ft | 368 kts | 266° |
| 2026-04-23 18:34 | 26.74999 | 47.65971 | 34396 ft | 382 kts | 266° |
| 2026-04-23 18:34 | 26.74875 | 47.59974 | 34435 ft | 393 kts | 266° |
| 2026-04-23 18:35 | 26.74741 | 47.53779 | 34532 ft | 403 kts | 266° |
| 2026-04-23 18:35 | 26.74599 | 47.47454 | 34680 ft | 410 kts | 266° |
| 2026-04-23 18:35 | 26.74526 | 47.44247 | 34805 ft | 413 kts | 266° |
| 2026-04-23 18:36 | 26.74585 | 47.41024 | 34898 ft | 416 kts | 274° |
| 2026-04-23 18:36 | 26.76261 | 47.34807 | 35145 ft | 421 kts | 285° |
| 2026-04-23 18:36 | 26.77210 | 47.31740 | 35436 ft | 417 kts | 282° |
| 2026-04-23 18:37 | 26.77995 | 47.28642 | 35736 ft | 413 kts | 279° |
| 2026-04-23 18:37 | 26.78640 | 47.25509 | 36024 ft | 410 kts | 277° |
| 2026-04-23 18:37 | 26.79183 | 47.22388 | 36327 ft | 407 kts | 275° |
| 2026-04-23 18:37 | 26.79667 | 47.19280 | 36623 ft | 404 kts | 275° |
| 2026-04-23 18:38 | 26.80124 | 47.16191 | 36909 ft | 401 kts | 274° |
| 2026-04-23 18:38 | 26.80573 | 47.13123 | 37221 ft | 398 kts | 274° |
| 2026-04-23 18:38 | 26.81021 | 47.10077 | 37527 ft | 395 kts | 274° |
| 2026-04-23 18:38 | 26.81474 | 47.07038 | 37841 ft | 392 kts | 274° |
| 2026-04-23 18:39 | 26.81925 | 47.04041 | 38160 ft | 389 kts | 274° |
| 2026-04-23 18:39 | 26.82377 | 47.01063 | 38476 ft | 386 kts | 274° |
| 2026-04-23 18:39 | 26.82827 | 46.98107 | 38633 ft | 386 kts | 274° |
| 2026-04-23 18:39 | 26.83281 | 46.95080 | 38141 ft | 400 kts | 274° |
| 2026-04-23 18:40 | 26.83746 | 46.91982 | 38019 ft | 406 kts | 274° |
| 2026-04-23 18:40 | 26.84692 | 46.85743 | 38017 ft | 403 kts | 274° |
| 2026-04-23 18:41 | 26.85620 | 46.79659 | 38014 ft | 396 kts | 274° |
| 2026-04-23 18:41 | 26.86537 | 46.73575 | 38014 ft | 395 kts | 274° |
| 2026-04-23 18:42 | 26.87446 | 46.67503 | 38017 ft | 395 kts | 274° |
| 2026-04-23 18:42 | 26.88354 | 46.61421 | 38015 ft | 396 kts | 274° |
| 2026-04-23 18:43 | 26.89261 | 46.55331 | 38010 ft | 396 kts | 274° |
| 2026-04-23 18:43 | 26.90166 | 46.49250 | 38015 ft | 395 kts | 274° |
| 2026-04-23 18:44 | 26.91067 | 46.43173 | 38018 ft | 393 kts | 274° |
| 2026-04-23 18:44 | 26.91954 | 46.37200 | 38015 ft | 388 kts | 274° |
| 2026-04-23 18:45 | 26.92838 | 46.31228 | 38013 ft | 388 kts | 274° |
| 2026-04-23 18:45 | 26.93714 | 46.25288 | 38013 ft | 388 kts | 274° |
| 2026-04-23 18:46 | 26.94595 | 46.19310 | 38013 ft | 388 kts | 274° |
| 2026-04-23 18:46 | 26.95472 | 46.13339 | 38014 ft | 389 kts | 274° |
| 2026-04-23 18:47 | 26.96351 | 46.07332 | 38016 ft | 390 kts | 274° |
| 2026-04-23 18:47 | 26.96825 | 46.04094 | 38031 ft | 390 kts | 274° |
| 2026-04-23 18:48 | 26.97423 | 46.00001 | 38014 ft | 388 kts | 274° |
| 2026-04-23 18:48 | 26.97955 | 45.96347 | 38009 ft | 387 kts | 274° |
| 2026-04-23 18:49 | 26.98821 | 45.90380 | 38014 ft | 388 kts | 274° |
| 2026-04-23 18:49 | 26.99687 | 45.84391 | 38012 ft | 389 kts | 274° |
| 2026-04-23 18:50 | 27.00405 | 45.79419 | 38011 ft | 389 kts | 274° |
| 2026-04-23 18:50 | 27.01413 | 45.72415 | 38015 ft | 389 kts | 274° |
| 2026-04-23 18:51 | 27.02269 | 45.66446 | 38016 ft | 390 kts | 274° |
| 2026-04-23 18:51 | 27.03127 | 45.60446 | 38014 ft | 389 kts | 274° |
| 2026-04-23 18:52 | 27.03981 | 45.54465 | 38015 ft | 388 kts | 273° |
| 2026-04-23 18:52 | 27.04831 | 45.48486 | 38016 ft | 388 kts | 273° |
| 2026-04-23 18:53 | 27.05644 | 45.42488 | 38013 ft | 388 kts | 272° |
| 2026-04-23 18:53 | 27.06328 | 45.36502 | 38013 ft | 387 kts | 271° |
| 2026-04-23 18:54 | 27.06979 | 45.30495 | 38013 ft | 388 kts | 271° |
| 2026-04-23 18:54 | 27.07637 | 45.24486 | 38016 ft | 388 kts | 272° |
| 2026-04-23 18:55 | 27.08302 | 45.18481 | 38018 ft | 387 kts | 271° |
| 2026-04-23 18:55 | 27.08966 | 45.12477 | 38008 ft | 388 kts | 271° |
| 2026-04-23 18:56 | 27.09516 | 45.07483 | 38012 ft | 388 kts | 271° |
| 2026-04-23 18:56 | 27.10283 | 45.00496 | 38012 ft | 388 kts | 271° |
| 2026-04-23 18:57 | 27.10940 | 44.94489 | 38012 ft | 388 kts | 272° |
| 2026-04-23 18:57 | 27.11593 | 44.88485 | 37998 ft | 388 kts | 272° |
| 2026-04-23 18:58 | 27.12244 | 44.82477 | 38011 ft | 388 kts | 272° |
| 2026-04-23 18:58 | 27.12893 | 44.76468 | 38012 ft | 388 kts | 272° |
| 2026-04-23 18:59 | 27.13536 | 44.70487 | 38005 ft | 388 kts | 272° |
| 2026-04-23 18:59 | 27.14180 | 44.64477 | 38007 ft | 388 kts | 271° |
| 2026-04-23 19:00 | 27.14822 | 44.58469 | 37972 ft | 387 kts | 272° |
| 2026-04-23 19:00 | 27.15465 | 44.52447 | 38009 ft | 388 kts | 271° |
| 2026-04-23 19:01 | 27.16103 | 44.46423 | 38008 ft | 388 kts | 271° |
| 2026-04-23 19:01 | 27.16737 | 44.40405 | 38014 ft | 388 kts | 272° |
| 2026-04-23 19:02 | 27.17262 | 44.35397 | 38016 ft | 388 kts | 272° |
| 2026-04-23 19:02 | 27.17988 | 44.28400 | 37999 ft | 387 kts | 272° |
| 2026-04-23 19:03 | 27.18608 | 44.22390 | 38022 ft | 387 kts | 271° |
| 2026-04-23 19:03 | 27.19226 | 44.16382 | 38009 ft | 387 kts | 271° |
| 2026-04-23 19:04 | 27.19841 | 44.10373 | 38009 ft | 387 kts | 271° |
| 2026-04-23 19:04 | 27.20454 | 44.04366 | 38009 ft | 387 kts | 271° |
| 2026-04-23 19:05 | 27.21064 | 43.98356 | 38010 ft | 387 kts | 271° |
| 2026-04-23 19:05 | 27.21667 | 43.92397 | 38010 ft | 386 kts | 271° |
| 2026-04-23 19:06 | 27.22271 | 43.86391 | 38009 ft | 386 kts | 271° |
| 2026-04-23 19:06 | 27.22873 | 43.80394 | 38011 ft | 386 kts | 271° |
| 2026-04-23 19:07 | 27.23472 | 43.74389 | 38008 ft | 386 kts | 271° |
| 2026-04-23 19:07 | 27.24070 | 43.68381 | 38010 ft | 386 kts | 271° |
| 2026-04-23 19:08 | 27.24666 | 43.62374 | 38029 ft | 386 kts | 271° |
| 2026-04-23 19:08 | 27.25255 | 43.56405 | 38009 ft | 386 kts | 271° |
| 2026-04-23 19:09 | 27.25847 | 43.50390 | 38012 ft | 386 kts | 271° |
| 2026-04-23 19:09 | 27.26435 | 43.44384 | 38014 ft | 386 kts | 271° |
| 2026-04-23 19:10 | 27.27016 | 43.38425 | 38012 ft | 386 kts | 271° |
| 2026-04-23 19:10 | 27.27599 | 43.32428 | 38009 ft | 386 kts | 271° |
| 2026-04-23 19:11 | 27.28179 | 43.26417 | 38012 ft | 386 kts | 271° |
| 2026-04-23 19:11 | 27.28755 | 43.20427 | 38016 ft | 386 kts | 271° |
| 2026-04-23 19:12 | 27.29233 | 43.15443 | 38013 ft | 384 kts | 271° |
| 2026-04-23 19:12 | 27.29899 | 43.08461 | 38012 ft | 384 kts | 271° |
| 2026-04-23 19:13 | 27.30466 | 43.02479 | 38020 ft | 385 kts | 271° |
| 2026-04-23 19:13 | 27.31028 | 42.96526 | 38014 ft | 384 kts | 271° |
| 2026-04-23 19:14 | 27.31591 | 42.90551 | 38019 ft | 383 kts | 271° |
| 2026-04-23 19:14 | 27.32149 | 42.84584 | 38018 ft | 383 kts | 271° |
| 2026-04-23 19:15 | 27.32610 | 42.79626 | 38015 ft | 383 kts | 271° |
| 2026-04-23 19:15 | 27.33164 | 42.73657 | 38018 ft | 383 kts | 271° |
| 2026-04-23 19:16 | 27.33804 | 42.66722 | 38018 ft | 383 kts | 271° |
| 2026-04-23 19:16 | 27.34263 | 42.61724 | 38018 ft | 383 kts | 271° |
| 2026-04-23 19:17 | 27.35076 | 42.52841 | 38015 ft | 381 kts | 271° |
| 2026-04-23 19:17 | 27.35615 | 42.46902 | 38016 ft | 381 kts | 271° |
| 2026-04-23 19:18 | 27.36151 | 42.40971 | 38018 ft | 381 kts | 271° |
| 2026-04-23 19:18 | 27.36683 | 42.35052 | 38014 ft | 379 kts | 271° |
| 2026-04-23 19:19 | 27.37474 | 42.26195 | 38018 ft | 380 kts | 271° |
| 2026-04-23 19:20 | 27.38261 | 42.17317 | 38021 ft | 381 kts | 270° |
| 2026-04-23 19:20 | 27.38786 | 42.11378 | 38021 ft | 380 kts | 270° |
| 2026-04-23 19:21 | 27.39564 | 42.02503 | 38021 ft | 380 kts | 270° |
| 2026-04-23 19:22 | 27.40080 | 41.96577 | 38017 ft | 380 kts | 270° |
| 2026-04-23 19:22 | 27.40842 | 41.87752 | 38017 ft | 379 kts | 270° |
| 2026-04-23 19:23 | 27.41352 | 41.81841 | 38023 ft | 379 kts | 270° |
| 2026-04-23 19:24 | 27.42138 | 41.72985 | 38028 ft | 380 kts | 272° |
| 2026-04-23 19:24 | 27.44720 | 41.64384 | 38044 ft | 399 kts | 290° |
| 2026-04-23 19:25 | 27.50584 | 41.53681 | 38050 ft | 403 kts | 292° |
| 2026-04-23 19:26 | 27.55093 | 41.45667 | 38033 ft | 404 kts | 292° |
| 2026-04-23 19:27 | 27.62515 | 41.32264 | 38004 ft | 403 kts | 292° |
| 2026-04-23 19:28 | 27.68431 | 41.21552 | 38003 ft | 402 kts | 292° |
| 2026-04-23 19:29 | 27.72865 | 41.13506 | 37997 ft | 402 kts | 291° |
| 2026-04-23 19:30 | 27.77286 | 41.05461 | 37999 ft | 403 kts | 291° |
| 2026-04-23 19:31 | 27.81724 | 40.97381 | 37999 ft | 403 kts | 291° |
| 2026-04-23 19:31 | 27.84679 | 40.91989 | 37998 ft | 404 kts | 291° |
| 2026-04-23 19:32 | 27.87633 | 40.86590 | 38000 ft | 405 kts | 291° |
| 2026-04-23 19:32 | 27.90600 | 40.81162 | 38000 ft | 405 kts | 291° |
| 2026-04-23 19:33 | 27.93564 | 40.75731 | 38025 ft | 405 kts | 291° |
| 2026-04-23 19:33 | 27.97977 | 40.67643 | 37999 ft | 404 kts | 291° |
| 2026-04-23 19:34 | 28.00921 | 40.62235 | 38001 ft | 404 kts | 291° |
| 2026-04-23 19:35 | 28.05334 | 40.54112 | 37993 ft | 404 kts | 291° |
| 2026-04-23 19:35 | 28.08262 | 40.48716 | 37994 ft | 404 kts | 291° |
| 2026-04-23 19:36 | 28.11200 | 40.43296 | 37995 ft | 404 kts | 290° |
| 2026-04-23 19:36 | 28.14138 | 40.37870 | 37992 ft | 403 kts | 290° |
| 2026-04-23 19:37 | 28.17065 | 40.32454 | 37993 ft | 403 kts | 290° |
| 2026-04-23 19:37 | 28.19993 | 40.27027 | 37990 ft | 403 kts | 290° |
| 2026-04-23 19:38 | 28.22920 | 40.21600 | 37987 ft | 403 kts | 290° |
| 2026-04-23 19:38 | 28.25825 | 40.16203 | 37994 ft | 403 kts | 290° |
| 2026-04-23 19:39 | 28.28749 | 40.10767 | 37983 ft | 403 kts | 290° |
| 2026-04-23 19:39 | 28.32051 | 40.05510 | 37966 ft | 412 kts | 296° |
| 2026-04-23 19:40 | 28.35635 | 40.00400 | 37978 ft | 414 kts | 297° |
| 2026-04-23 19:40 | 28.39270 | 39.95320 | 37973 ft | 414 kts | 297° |
| 2026-04-23 19:41 | 28.42895 | 39.90243 | 37973 ft | 414 kts | 296° |
| 2026-04-23 19:41 | 28.46515 | 39.85148 | 37969 ft | 414 kts | 297° |
| 2026-04-23 19:42 | 28.50119 | 39.80059 | 38021 ft | 414 kts | 297° |
| 2026-04-23 19:42 | 28.53709 | 39.74979 | 37975 ft | 415 kts | 297° |
| 2026-04-23 19:43 | 28.57324 | 39.69865 | 37970 ft | 415 kts | 297° |
| 2026-04-23 19:43 | 28.60946 | 39.64739 | 37970 ft | 415 kts | 297° |
| 2026-04-23 19:44 | 28.64566 | 39.59608 | 37971 ft | 415 kts | 297° |
| 2026-04-23 19:44 | 28.68179 | 39.54478 | 37970 ft | 415 kts | 297° |
| 2026-04-23 19:45 | 28.71766 | 39.49379 | 37965 ft | 414 kts | 297° |
| 2026-04-23 19:45 | 28.75369 | 39.44251 | 37964 ft | 414 kts | 297° |
| 2026-04-23 19:46 | 28.78974 | 39.39112 | 37959 ft | 414 kts | 297° |
| 2026-04-23 19:46 | 28.82572 | 39.33977 | 37970 ft | 414 kts | 297° |
| 2026-04-23 19:47 | 28.85559 | 39.29711 | 37962 ft | 414 kts | 297° |
| 2026-04-23 19:47 | 28.89754 | 39.23714 | 37948 ft | 413 kts | 297° |
| 2026-04-23 19:48 | 28.93338 | 39.18582 | 37947 ft | 413 kts | 297° |
| 2026-04-23 19:48 | 28.96899 | 39.13473 | 37951 ft | 413 kts | 297° |
| 2026-04-23 19:49 | 29.00477 | 39.08334 | 37942 ft | 414 kts | 297° |
| 2026-04-23 19:49 | 29.04068 | 39.03169 | 37947 ft | 415 kts | 297° |
| 2026-04-23 19:50 | 29.07585 | 38.97957 | 37942 ft | 408 kts | 292° |
| 2026-04-23 19:50 | 29.10062 | 38.92300 | 37938 ft | 390 kts | 279° |
| 2026-04-23 19:51 | 29.11037 | 38.86381 | 37941 ft | 376 kts | 267° |
| 2026-04-23 19:51 | 29.11121 | 38.80412 | 37938 ft | 375 kts | 264° |
| 2026-04-23 19:52 | 29.11067 | 38.75412 | 37937 ft | 375 kts | 264° |
| 2026-04-23 19:52 | 29.10987 | 38.68472 | 37885 ft | 375 kts | 264° |
| 2026-04-23 19:53 | 29.10942 | 38.62498 | 37923 ft | 376 kts | 264° |
| 2026-04-23 19:53 | 29.10905 | 38.56501 | 37923 ft | 377 kts | 264° |
| 2026-04-23 19:54 | 29.10870 | 38.50542 | 37927 ft | 377 kts | 264° |
| 2026-04-23 19:54 | 29.10830 | 38.44540 | 37929 ft | 377 kts | 264° |
| 2026-04-23 19:55 | 29.10786 | 38.38550 | 37922 ft | 377 kts | 264° |
| 2026-04-23 19:55 | 29.10739 | 38.32552 | 37925 ft | 377 kts | 264° |
| 2026-04-23 19:56 | 29.10690 | 38.26598 | 37917 ft | 377 kts | 264° |
| 2026-04-23 19:56 | 29.10637 | 38.20597 | 37916 ft | 377 kts | 264° |
| 2026-04-23 19:57 | 29.10583 | 38.14608 | 37914 ft | 377 kts | 264° |
| 2026-04-23 19:57 | 29.10535 | 38.09626 | 37915 ft | 376 kts | 264° |
| 2026-04-23 19:58 | 29.10465 | 38.02629 | 37907 ft | 376 kts | 264° |
| 2026-04-23 19:58 | 29.10402 | 37.96639 | 37906 ft | 377 kts | 264° |
| 2026-04-23 19:59 | 29.10337 | 37.90664 | 37904 ft | 377 kts | 264° |
| 2026-04-23 19:59 | 29.10268 | 37.84670 | 37903 ft | 377 kts | 264° |
| 2026-04-23 20:00 | 29.10198 | 37.78671 | 37902 ft | 377 kts | 264° |
| 2026-04-23 20:00 | 29.10125 | 37.72671 | 37904 ft | 377 kts | 264° |
| 2026-04-23 20:01 | 29.10049 | 37.66673 | 37901 ft | 377 kts | 264° |
| 2026-04-23 20:01 | 29.09971 | 37.60666 | 37900 ft | 377 kts | 264° |
| 2026-04-23 20:02 | 29.09889 | 37.54702 | 37900 ft | 377 kts | 264° |
| 2026-04-23 20:02 | 29.09814 | 37.48698 | 37899 ft | 377 kts | 264° |
| 2026-04-23 20:03 | 29.09768 | 37.42683 | 37902 ft | 380 kts | 264° |
| 2026-04-23 20:03 | 29.09733 | 37.37604 | 37904 ft | 381 kts | 264° |
| 2026-04-23 20:04 | 29.09682 | 37.30564 | 37901 ft | 380 kts | 264° |
| 2026-04-23 20:04 | 29.09642 | 37.25552 | 37901 ft | 378 kts | 264° |
| 2026-04-23 20:05 | 29.09589 | 37.19546 | 37900 ft | 379 kts | 264° |
| 2026-04-23 20:05 | 29.09531 | 37.13497 | 37898 ft | 380 kts | 264° |
| 2026-04-23 20:06 | 29.09472 | 37.07489 | 37898 ft | 380 kts | 264° |
| 2026-04-23 20:06 | 29.09411 | 37.01435 | 37894 ft | 380 kts | 264° |
| 2026-04-23 20:07 | 29.09347 | 36.95373 | 37894 ft | 383 kts | 264° |
| 2026-04-23 20:07 | 29.09277 | 36.89248 | 37884 ft | 387 kts | 264° |
| 2026-04-23 20:08 | 29.09207 | 36.83095 | 37876 ft | 387 kts | 264° |
| 2026-04-23 20:08 | 29.09135 | 36.76944 | 37879 ft | 387 kts | 264° |
| 2026-04-23 20:09 | 29.09060 | 36.70818 | 37878 ft | 389 kts | 264° |
| 2026-04-23 20:09 | 29.08978 | 36.64621 | 37871 ft | 390 kts | 264° |
| 2026-04-23 20:10 | 29.08896 | 36.58413 | 37868 ft | 388 kts | 264° |
| 2026-04-23 20:10 | 29.08814 | 36.52298 | 37862 ft | 386 kts | 264° |
| 2026-04-23 20:11 | 29.08711 | 36.46148 | 37866 ft | 387 kts | 264° |
| 2026-04-23 20:11 | 29.08550 | 36.39981 | 37863 ft | 389 kts | 264° |
| 2026-04-23 20:12 | 29.08375 | 36.33801 | 37866 ft | 389 kts | 264° |
| 2026-04-23 20:12 | 29.08201 | 36.27650 | 37866 ft | 389 kts | 264° |
| 2026-04-23 20:13 | 29.08026 | 36.21470 | 37861 ft | 389 kts | 264° |
| 2026-04-23 20:13 | 29.07851 | 36.15288 | 37860 ft | 389 kts | 264° |
| 2026-04-23 20:14 | 29.07673 | 36.09107 | 37871 ft | 389 kts | 264° |
| 2026-04-23 20:14 | 29.07491 | 36.02933 | 37872 ft | 389 kts | 264° |
| 2026-04-23 20:15 | 29.07308 | 35.96788 | 37870 ft | 389 kts | 264° |
| 2026-04-23 20:15 | 29.07122 | 35.90619 | 37880 ft | 388 kts | 263° |
| 2026-04-23 20:16 | 29.06933 | 35.84470 | 37885 ft | 386 kts | 264° |
| 2026-04-23 20:16 | 29.06742 | 35.78327 | 37887 ft | 386 kts | 263° |
| 2026-04-23 20:17 | 29.06546 | 35.72184 | 37892 ft | 387 kts | 264° |
| 2026-04-23 20:17 | 29.06348 | 35.66028 | 37900 ft | 388 kts | 264° |
| 2026-04-23 20:18 | 29.06147 | 35.59849 | 37897 ft | 388 kts | 264° |
| 2026-04-23 20:18 | 29.05945 | 35.53728 | 37907 ft | 388 kts | 264° |
| 2026-04-23 20:19 | 29.05739 | 35.47576 | 37914 ft | 388 kts | 264° |
| 2026-04-23 20:19 | 29.05527 | 35.41373 | 37908 ft | 390 kts | 264° |
| 2026-04-23 20:20 | 29.05315 | 35.35191 | 37904 ft | 389 kts | 264° |
| 2026-04-23 20:20 | 29.05100 | 35.29018 | 37902 ft | 389 kts | 264° |
| 2026-04-23 20:21 | 29.04881 | 35.22837 | 37878 ft | 389 kts | 264° |
| 2026-04-23 20:21 | 29.04658 | 35.16634 | 37895 ft | 391 kts | 264° |
| 2026-04-23 20:22 | 29.04434 | 35.10460 | 37883 ft | 390 kts | 264° |
| 2026-04-23 20:22 | 29.04207 | 35.04252 | 37873 ft | 391 kts | 264° |
| 2026-04-23 20:23 | 29.03978 | 34.98043 | 37891 ft | 391 kts | 264° |
| 2026-04-23 20:23 | 29.03744 | 34.91867 | 37863 ft | 391 kts | 264° |
| 2026-04-23 20:24 | 29.03511 | 34.85644 | 37859 ft | 392 kts | 264° |
| 2026-04-23 20:24 | 29.03368 | 34.79415 | 37860 ft | 392 kts | 265° |
| 2026-04-23 20:25 | 29.03292 | 34.73177 | 37873 ft | 392 kts | 265° |
| 2026-04-23 20:25 | 29.03606 | 34.66906 | 37867 ft | 400 kts | 275° |
| 2026-04-23 20:26 | 29.05053 | 34.60754 | 37883 ft | 406 kts | 281° |
| 2026-04-23 20:26 | 29.06838 | 34.54607 | 37870 ft | 407 kts | 282° |
| 2026-04-23 20:27 | 29.08665 | 34.48475 | 37901 ft | 407 kts | 282° |
| 2026-04-23 20:27 | 29.10496 | 34.42327 | 37914 ft | 409 kts | 282° |
| 2026-04-23 20:28 | 29.12307 | 34.36177 | 37923 ft | 410 kts | 282° |
| 2026-04-23 20:28 | 29.14107 | 34.30008 | 37931 ft | 409 kts | 282° |
| 2026-04-23 20:29 | 29.15903 | 34.23821 | 37937 ft | 410 kts | 282° |
| 2026-04-23 20:29 | 29.17699 | 34.17630 | 37941 ft | 409 kts | 282° |
| 2026-04-23 20:30 | 29.19493 | 34.11444 | 37943 ft | 410 kts | 282° |
| 2026-04-23 20:30 | 29.22180 | 34.02156 | 37951 ft | 410 kts | 282° |
| 2026-04-23 20:31 | 29.23970 | 33.95953 | 37951 ft | 410 kts | 282° |
| 2026-04-23 20:31 | 29.25760 | 33.89738 | 37946 ft | 411 kts | 283° |
| 2026-04-23 20:32 | 29.27537 | 33.83564 | 37962 ft | 411 kts | 283° |
| 2026-04-23 20:32 | 29.29322 | 33.77349 | 37952 ft | 411 kts | 283° |
| 2026-04-23 20:33 | 29.31106 | 33.71121 | 37959 ft | 411 kts | 283° |
| 2026-04-23 20:33 | 29.32892 | 33.64875 | 37952 ft | 413 kts | 283° |
| 2026-04-23 20:34 | 29.34682 | 33.58597 | 37950 ft | 415 kts | 283° |
| 2026-04-23 20:34 | 29.36471 | 33.52321 | 37949 ft | 415 kts | 283° |
| 2026-04-23 20:35 | 29.38259 | 33.46032 | 37950 ft | 414 kts | 283° |
| 2026-04-23 20:35 | 29.40043 | 33.39745 | 37950 ft | 414 kts | 283° |
| 2026-04-23 20:36 | 29.41825 | 33.33454 | 37946 ft | 414 kts | 283° |
| 2026-04-23 20:36 | 29.43593 | 33.27194 | 37946 ft | 414 kts | 283° |
| 2026-04-23 20:37 | 29.45370 | 33.20895 | 37943 ft | 415 kts | 283° |
| 2026-04-23 20:37 | 29.47140 | 33.14604 | 37946 ft | 415 kts | 283° |
| 2026-04-23 20:38 | 29.48913 | 33.08287 | 37937 ft | 416 kts | 283° |
| 2026-04-23 20:38 | 29.50687 | 33.01958 | 37929 ft | 416 kts | 283° |
| 2026-04-23 20:39 | 29.52452 | 32.95653 | 37930 ft | 416 kts | 283° |
| 2026-04-23 20:39 | 29.54219 | 32.89324 | 37922 ft | 416 kts | 283° |
| 2026-04-23 20:40 | 29.55983 | 32.82990 | 37909 ft | 417 kts | 283° |
| 2026-04-23 20:40 | 29.57752 | 32.76625 | 37915 ft | 417 kts | 283° |
| 2026-04-23 20:41 | 29.59503 | 32.70317 | 37917 ft | 417 kts | 283° |
| 2026-04-23 20:41 | 29.61115 | 32.63930 | 37920 ft | 415 kts | 281° |
| 2026-04-23 20:42 | 29.62554 | 32.57510 | 37920 ft | 417 kts | 280° |
| 2026-04-23 20:42 | 29.63983 | 32.51048 | 37926 ft | 419 kts | 280° |
| 2026-04-23 20:43 | 29.65434 | 32.44572 | 37929 ft | 419 kts | 281° |
| 2026-04-23 20:43 | 29.66895 | 32.38090 | 37926 ft | 418 kts | 281° |
| 2026-04-23 20:44 | 29.68357 | 32.31603 | 37930 ft | 419 kts | 281° |
| 2026-04-23 20:44 | 29.69820 | 32.25093 | 37936 ft | 421 kts | 281° |
| 2026-04-23 20:45 | 29.71282 | 32.18567 | 37933 ft | 421 kts | 281° |
| 2026-04-23 20:45 | 29.72741 | 32.12040 | 37936 ft | 421 kts | 281° |
| 2026-04-23 20:46 | 29.74196 | 32.05511 | 37946 ft | 421 kts | 281° |
| 2026-04-23 20:46 | 29.75648 | 31.98979 | 37938 ft | 421 kts | 281° |
| 2026-04-23 20:47 | 29.77090 | 31.92477 | 37942 ft | 421 kts | 281° |
| 2026-04-23 20:47 | 29.79154 | 31.86133 | 37942 ft | 428 kts | 294° |
| 2026-04-23 20:48 | 29.82450 | 31.80371 | 37939 ft | 433 kts | 301° |
| 2026-04-23 20:48 | 29.86038 | 31.74801 | 37939 ft | 433 kts | 302° |
| 2026-04-23 20:49 | 29.89673 | 31.69254 | 37941 ft | 433 kts | 302° |
| 2026-04-23 20:49 | 29.93277 | 31.63706 | 37941 ft | 432 kts | 301° |
| 2026-04-23 20:50 | 29.96846 | 31.58168 | 37937 ft | 432 kts | 301° |
| 2026-04-23 20:50 | 29.99825 | 31.53530 | 37938 ft | 432 kts | 301° |
| 2026-04-23 20:51 | 30.03405 | 31.47950 | 37942 ft | 432 kts | 302° |
| 2026-04-23 20:51 | 30.07550 | 31.41484 | 37937 ft | 431 kts | 302° |
| 2026-04-23 20:52 | 30.10899 | 31.37149 | 37941 ft | 437 kts | 310° |
| 2026-04-23 20:52 | 30.15299 | 31.32283 | 37959 ft | 438 kts | 311° |
| 2026-04-23 20:53 | 30.18336 | 31.29029 | 37938 ft | 438 kts | 312° |
| 2026-04-23 20:53 | 30.22818 | 31.24250 | 37953 ft | 438 kts | 312° |
| 2026-04-23 20:54 | 30.27283 | 31.19465 | 37935 ft | 436 kts | 312° |
| 2026-04-23 20:54 | 30.31719 | 31.14689 | 37938 ft | 435 kts | 311° |
| 2026-04-23 20:55 | 30.36151 | 31.09905 | 37941 ft | 435 kts | 311° |
| 2026-04-23 20:55 | 30.40577 | 31.05122 | 37941 ft | 435 kts | 311° |
| 2026-04-23 20:56 | 30.44256 | 31.01142 | 37941 ft | 435 kts | 311° |